sensor_id;sensor_type;location;lat;lon;timestamp;temperature;humidity
20722;DHT22;10522;52.198;9.890;2023-10-19T00:00:34;7.90;99.90
20722;DHT22;10522;52.198;9.890;2023-10-19T00:03:02;7.90;99.90
20722;DHT22;10522;52.198;9.890;2023-10-19T00:05:35;7.80;99.90
20722;DHT22;10522;52.198;9.890;2023-10-19T00:08:02;7.80;99.90
20722;DHT22;10522;52.198;9.890;2023-10-19T00:10:43;7.80;99.90
20722;DHT22;10522;52.198;9.890;2023-10-19T00:13:09;7.80;99.90
20722;DHT22;10522;52.198;9.890;2023-10-19T00:15:41;7.80;99.90
20722;DHT22;10522;52.198;9.890;2023-10-19T00:18:12;7.80;99.90
20722;DHT22;10522;52.198;9.890;2023-10-19T00:20:41;7.80;99.90
20722;DHT22;10522;52.198;9.890;2023-10-19T00:23:10;7.80;99.90
20722;DHT22;10522;52.198;9.890;2023-10-19T00:25:39;7.90;99.90
20722;DHT22;10522;52.198;9.890;2023-10-19T00:28:07;7.80;99.90
20722;DHT22;10522;52.198;9.890;2023-10-19T00:30:32;7.90;99.90
20722;DHT22;10522;52.198;9.890;2023-10-19T00:33:02;7.90;99.90
20722;DHT22;10522;52.198;9.890;2023-10-19T00:35:34;7.90;99.90
20722;DHT22;10522;52.198;9.890;2023-10-19T00:38:08;7.90;99.90
20722;DHT22;10522;52.198;9.890;2023-10-19T00:40:53;7.80;99.90
20722;DHT22;10522;52.198;9.890;2023-10-19T00:43:32;7.90;99.90
20722;DHT22;10522;52.198;9.890;2023-10-19T00:46:00;7.90;99.90
20722;DHT22;10522;52.198;9.890;2023-10-19T00:48:35;7.90;99.90
20722;DHT22;10522;52.198;9.890;2023-10-19T00:51:02;7.90;99.90
20722;DHT22;10522;52.198;9.890;2023-10-19T00:53:38;7.90;99.90
20722;DHT22;10522;52.198;9.890;2023-10-19T00:56:08;7.90;99.90
20722;DHT22;10522;52.198;9.890;2023-10-19T00:58:36;7.90;99.90
20722;DHT22;10522;52.198;9.890;2023-10-19T01:01:05;7.90;99.90
20722;DHT22;10522;52.198;9.890;2023-10-19T01:03:35;7.90;99.90
20722;DHT22;10522;52.198;9.890;2023-10-19T01:06:04;7.90;99.90
20722;DHT22;10522;52.198;9.890;2023-10-19T01:08:38;7.90;99.90
20722;DHT22;10522;52.198;9.890;2023-10-19T01:11:11;8.00;99.90
20722;DHT22;10522;52.198;9.890;2023-10-19T01:13:40;8.00;99.90
20722;DHT22;10522;52.198;9.890;2023-10-19T01:16:13;7.90;99.90
20722;DHT22;10522;52.198;9.890;2023-10-19T01:18:49;8.00;99.90
20722;DHT22;10522;52.198;9.890;2023-10-19T01:21:24;7.90;99.90
20722;DHT22;10522;52.198;9.890;2023-10-19T01:24:06;7.90;99.90
20722;DHT22;10522;52.198;9.890;2023-10-19T01:26:33;7.90;99.90
20722;DHT22;10522;52.198;9.890;2023-10-19T01:29:02;7.80;99.90
20722;DHT22;10522;52.198;9.890;2023-10-19T01:31:39;7.90;99.90
20722;DHT22;10522;52.198;9.890;2023-10-19T01:34:16;7.90;99.90
20722;DHT22;10522;52.198;9.890;2023-10-19T01:36:45;7.90;99.90
20722;DHT22;10522;52.198;9.890;2023-10-19T01:39:15;7.90;99.90
20722;DHT22;10522;52.198;9.890;2023-10-19T01:41:44;7.90;99.90
20722;DHT22;10522;52.198;9.890;2023-10-19T01:44:10;7.90;99.90
20722;DHT22;10522;52.198;9.890;2023-10-19T01:46:39;7.90;99.90
20722;DHT22;10522;52.198;9.890;2023-10-19T01:49:05;8.00;99.90
20722;DHT22;10522;52.198;9.890;2023-10-19T01:51:33;7.90;99.90
20722;DHT22;10522;52.198;9.890;2023-10-19T01:54:00;7.90;99.90
20722;DHT22;10522;52.198;9.890;2023-10-19T01:56:28;7.90;99.90
20722;DHT22;10522;52.198;9.890;2023-10-19T01:58:54;7.90;99.90
20722;DHT22;10522;52.198;9.890;2023-10-19T02:01:20;7.80;99.90
20722;DHT22;10522;52.198;9.890;2023-10-19T02:03:59;7.80;99.90
20722;DHT22;10522;52.198;9.890;2023-10-19T02:06:27;7.80;99.90
20722;DHT22;10522;52.198;9.890;2023-10-19T02:09:19;7.80;99.90
20722;DHT22;10522;52.198;9.890;2023-10-19T02:11:53;7.80;99.90
20722;DHT22;10522;52.198;9.890;2023-10-19T02:14:20;7.80;99.90
20722;DHT22;10522;52.198;9.890;2023-10-19T02:16:48;7.80;99.90
20722;DHT22;10522;52.198;9.890;2023-10-19T02:19:17;7.90;99.90
20722;DHT22;10522;52.198;9.890;2023-10-19T02:21:43;7.80;99.90
20722;DHT22;10522;52.198;9.890;2023-10-19T02:24:10;7.80;99.90
20722;DHT22;10522;52.198;9.890;2023-10-19T02:26:47;7.80;99.90
20722;DHT22;10522;52.198;9.890;2023-10-19T02:29:13;7.90;99.90
20722;DHT22;10522;52.198;9.890;2023-10-19T02:31:42;7.90;99.90
20722;DHT22;10522;52.198;9.890;2023-10-19T02:34:10;7.90;99.90
20722;DHT22;10522;52.198;9.890;2023-10-19T02:36:37;7.90;99.90
20722;DHT22;10522;52.198;9.890;2023-10-19T02:39:08;7.90;99.90
20722;DHT22;10522;52.198;9.890;2023-10-19T02:41:39;7.80;99.90
20722;DHT22;10522;52.198;9.890;2023-10-19T02:44:08;8.00;99.90
20722;DHT22;10522;52.198;9.890;2023-10-19T02:46:45;7.90;99.90
20722;DHT22;10522;52.198;9.890;2023-10-19T02:49:12;7.90;99.90
20722;DHT22;10522;52.198;9.890;2023-10-19T02:51:42;7.80;99.90
20722;DHT22;10522;52.198;9.890;2023-10-19T02:54:16;7.90;99.90
20722;DHT22;10522;52.198;9.890;2023-10-19T02:56:51;7.80;99.90
20722;DHT22;10522;52.198;9.890;2023-10-19T02:59:24;7.90;99.90
20722;DHT22;10522;52.198;9.890;2023-10-19T03:01:55;7.90;99.90
20722;DHT22;10522;52.198;9.890;2023-10-19T03:04:26;7.90;99.90
20722;DHT22;10522;52.198;9.890;2023-10-19T03:06:54;7.90;99.90
20722;DHT22;10522;52.198;9.890;2023-10-19T03:09:22;8.00;99.90
20722;DHT22;10522;52.198;9.890;2023-10-19T03:11:50;8.00;99.90
20722;DHT22;10522;52.198;9.890;2023-10-19T03:14:20;7.90;99.90
20722;DHT22;10522;52.198;9.890;2023-10-19T03:16:45;7.90;99.90
20722;DHT22;10522;52.198;9.890;2023-10-19T03:19:11;7.90;99.90
20722;DHT22;10522;52.198;9.890;2023-10-19T03:21:38;7.90;99.90
20722;DHT22;10522;52.198;9.890;2023-10-19T03:24:14;7.90;99.90
20722;DHT22;10522;52.198;9.890;2023-10-19T03:27:05;7.80;99.90
20722;DHT22;10522;52.198;9.890;2023-10-19T03:29:52;7.90;99.90
20722;DHT22;10522;52.198;9.890;2023-10-19T03:32:22;7.90;99.90
20722;DHT22;10522;52.198;9.890;2023-10-19T03:34:54;8.00;99.90
20722;DHT22;10522;52.198;9.890;2023-10-19T03:37:26;7.90;99.90
20722;DHT22;10522;52.198;9.890;2023-10-19T03:39:55;8.00;99.90
20722;DHT22;10522;52.198;9.890;2023-10-19T03:42:27;8.00;99.90
20722;DHT22;10522;52.198;9.890;2023-10-19T03:44:58;8.00;99.90
20722;DHT22;10522;52.198;9.890;2023-10-19T03:47:25;8.00;99.90
20722;DHT22;10522;52.198;9.890;2023-10-19T03:50:03;8.00;99.90
20722;DHT22;10522;52.198;9.890;2023-10-19T03:52:35;8.00;99.90
20722;DHT22;10522;52.198;9.890;2023-10-19T03:55:03;8.00;99.90
20722;DHT22;10522;52.198;9.890;2023-10-19T03:57:36;8.10;99.90
20722;DHT22;10522;52.198;9.890;2023-10-19T04:00:07;8.00;99.90
20722;DHT22;10522;52.198;9.890;2023-10-19T04:02:36;8.10;99.90
20722;DHT22;10522;52.198;9.890;2023-10-19T04:05:04;8.00;99.90
20722;DHT22;10522;52.198;9.890;2023-10-19T04:07:29;8.00;99.90
20722;DHT22;10522;52.198;9.890;2023-10-19T04:09:57;8.00;99.90
20722;DHT22;10522;52.198;9.890;2023-10-19T04:12:26;8.10;99.90
20722;DHT22;10522;52.198;9.890;2023-10-19T04:14:55;8.10;99.90
20722;DHT22;10522;52.198;9.890;2023-10-19T04:17:21;8.10;99.90
20722;DHT22;10522;52.198;9.890;2023-10-19T04:19:48;8.00;99.90
20722;DHT22;10522;52.198;9.890;2023-10-19T04:22:14;8.10;99.90
20722;DHT22;10522;52.198;9.890;2023-10-19T04:24:47;8.10;99.90
20722;DHT22;10522;52.198;9.890;2023-10-19T04:27:12;8.10;99.90
20722;DHT22;10522;52.198;9.890;2023-10-19T04:29:38;8.10;99.90
20722;DHT22;10522;52.198;9.890;2023-10-19T04:32:06;8.10;99.90
20722;DHT22;10522;52.198;9.890;2023-10-19T04:34:32;8.10;99.90
20722;DHT22;10522;52.198;9.890;2023-10-19T04:36:58;8.10;99.90
20722;DHT22;10522;52.198;9.890;2023-10-19T04:39:23;8.10;99.90
20722;DHT22;10522;52.198;9.890;2023-10-19T04:41:49;8.20;99.90
20722;DHT22;10522;52.198;9.890;2023-10-19T04:44:15;8.20;99.90
20722;DHT22;10522;52.198;9.890;2023-10-19T04:46:41;8.20;99.90
20722;DHT22;10522;52.198;9.890;2023-10-19T04:49:07;8.20;99.90
20722;DHT22;10522;52.198;9.890;2023-10-19T04:51:34;8.20;99.90
20722;DHT22;10522;52.198;9.890;2023-10-19T04:54:04;8.20;99.90
20722;DHT22;10522;52.198;9.890;2023-10-19T04:56:30;8.20;99.90
20722;DHT22;10522;52.198;9.890;2023-10-19T04:58:57;8.20;99.90
20722;DHT22;10522;52.198;9.890;2023-10-19T05:01:23;8.20;99.90
20722;DHT22;10522;52.198;9.890;2023-10-19T05:03:48;8.20;99.90
20722;DHT22;10522;52.198;9.890;2023-10-19T05:06:14;8.20;99.90
20722;DHT22;10522;52.198;9.890;2023-10-19T05:08:39;8.20;99.90
20722;DHT22;10522;52.198;9.890;2023-10-19T05:11:05;8.20;99.90
20722;DHT22;10522;52.198;9.890;2023-10-19T05:13:31;8.20;99.90
20722;DHT22;10522;52.198;9.890;2023-10-19T05:15:58;8.20;99.90
20722;DHT22;10522;52.198;9.890;2023-10-19T05:18:27;8.30;99.90
20722;DHT22;10522;52.198;9.890;2023-10-19T05:20:53;8.20;99.90
20722;DHT22;10522;52.198;9.890;2023-10-19T05:23:27;8.20;99.90
20722;DHT22;10522;52.198;9.890;2023-10-19T05:26:00;8.20;99.90
20722;DHT22;10522;52.198;9.890;2023-10-19T05:28:25;8.20;99.90
20722;DHT22;10522;52.198;9.890;2023-10-19T05:30:51;8.20;99.90
20722;DHT22;10522;52.198;9.890;2023-10-19T05:33:17;8.20;99.90
20722;DHT22;10522;52.198;9.890;2023-10-19T05:35:49;8.20;99.90
20722;DHT22;10522;52.198;9.890;2023-10-19T05:38:15;8.20;99.90
20722;DHT22;10522;52.198;9.890;2023-10-19T05:40:41;8.20;99.90
20722;DHT22;10522;52.198;9.890;2023-10-19T05:43:08;8.20;99.90
20722;DHT22;10522;52.198;9.890;2023-10-19T05:45:34;8.20;99.90
20722;DHT22;10522;52.198;9.890;2023-10-19T05:48:02;8.20;99.90
20722;DHT22;10522;52.198;9.890;2023-10-19T05:50:29;8.30;99.90
20722;DHT22;10522;52.198;9.890;2023-10-19T05:52:55;8.30;99.90
20722;DHT22;10522;52.198;9.890;2023-10-19T05:55:21;8.30;99.90
20722;DHT22;10522;52.198;9.890;2023-10-19T05:57:47;8.30;99.90
20722;DHT22;10522;52.198;9.890;2023-10-19T06:00:13;8.30;99.90
20722;DHT22;10522;52.198;9.890;2023-10-19T06:02:44;8.30;99.90
20722;DHT22;10522;52.198;9.890;2023-10-19T06:05:10;8.40;99.90
20722;DHT22;10522;52.198;9.890;2023-10-19T06:07:36;8.30;99.90
20722;DHT22;10522;52.198;9.890;2023-10-19T06:10:03;8.30;99.90
20722;DHT22;10522;52.198;9.890;2023-10-19T06:12:32;8.40;99.90
20722;DHT22;10522;52.198;9.890;2023-10-19T06:14:58;8.40;99.90
20722;DHT22;10522;52.198;9.890;2023-10-19T06:17:24;8.40;99.90
20722;DHT22;10522;52.198;9.890;2023-10-19T06:19:49;8.40;99.90
20722;DHT22;10522;52.198;9.890;2023-10-19T06:22:15;8.40;99.90
20722;DHT22;10522;52.198;9.890;2023-10-19T06:24:42;8.40;99.90
20722;DHT22;10522;52.198;9.890;2023-10-19T06:27:10;8.40;99.90
20722;DHT22;10522;52.198;9.890;2023-10-19T06:29:35;8.50;99.90
20722;DHT22;10522;52.198;9.890;2023-10-19T06:32:01;8.40;99.90
20722;DHT22;10522;52.198;9.890;2023-10-19T06:34:27;8.40;99.90
20722;DHT22;10522;52.198;9.890;2023-10-19T06:36:53;8.40;99.90
20722;DHT22;10522;52.198;9.890;2023-10-19T06:39:20;8.40;99.90
20722;DHT22;10522;52.198;9.890;2023-10-19T06:41:47;8.40;99.90
20722;DHT22;10522;52.198;9.890;2023-10-19T06:44:13;8.40;99.90
20722;DHT22;10522;52.198;9.890;2023-10-19T06:46:39;8.50;99.90
20722;DHT22;10522;52.198;9.890;2023-10-19T06:49:05;8.40;99.90
20722;DHT22;10522;52.198;9.890;2023-10-19T06:51:31;8.40;99.90
20722;DHT22;10522;52.198;9.890;2023-10-19T06:53:58;8.50;99.90
20722;DHT22;10522;52.198;9.890;2023-10-19T06:56:24;8.50;99.90
20722;DHT22;10522;52.198;9.890;2023-10-19T06:58:50;8.50;99.90
20722;DHT22;10522;52.198;9.890;2023-10-19T07:01:15;8.40;99.90
20722;DHT22;10522;52.198;9.890;2023-10-19T07:03:48;8.50;99.90
20722;DHT22;10522;52.198;9.890;2023-10-19T07:06:14;8.50;99.90
20722;DHT22;10522;52.198;9.890;2023-10-19T07:08:40;8.50;99.90
20722;DHT22;10522;52.198;9.890;2023-10-19T07:11:09;8.50;99.90
20722;DHT22;10522;52.198;9.890;2023-10-19T07:13:36;8.50;99.90
20722;DHT22;10522;52.198;9.890;2023-10-19T07:16:01;8.60;99.90
20722;DHT22;10522;52.198;9.890;2023-10-19T07:18:36;8.60;99.90
20722;DHT22;10522;52.198;9.890;2023-10-19T07:21:10;8.60;99.90
20722;DHT22;10522;52.198;9.890;2023-10-19T07:23:37;8.70;99.90
20722;DHT22;10522;52.198;9.890;2023-10-19T07:26:04;8.60;99.90
20722;DHT22;10522;52.198;9.890;2023-10-19T07:28:33;8.60;99.90
20722;DHT22;10522;52.198;9.890;2023-10-19T07:30:58;8.70;99.90
20722;DHT22;10522;52.198;9.890;2023-10-19T07:33:27;8.60;99.90
20722;DHT22;10522;52.198;9.890;2023-10-19T07:35:53;8.60;99.90
20722;DHT22;10522;52.198;9.890;2023-10-19T07:38:25;8.50;99.90
20722;DHT22;10522;52.198;9.890;2023-10-19T07:40:51;8.60;99.90
20722;DHT22;10522;52.198;9.890;2023-10-19T07:43:18;8.60;99.90
20722;DHT22;10522;52.198;9.890;2023-10-19T07:45:46;8.60;99.90
20722;DHT22;10522;52.198;9.890;2023-10-19T07:48:13;8.60;99.90
20722;DHT22;10522;52.198;9.890;2023-10-19T07:50:39;8.60;99.90
20722;DHT22;10522;52.198;9.890;2023-10-19T07:53:08;8.60;99.90
20722;DHT22;10522;52.198;9.890;2023-10-19T07:55:37;8.60;99.90
20722;DHT22;10522;52.198;9.890;2023-10-19T07:58:04;8.60;99.90
20722;DHT22;10522;52.198;9.890;2023-10-19T08:00:50;8.60;99.90
20722;DHT22;10522;52.198;9.890;2023-10-19T08:03:18;8.50;99.90
20722;DHT22;10522;52.198;9.890;2023-10-19T08:05:44;8.70;99.90
20722;DHT22;10522;52.198;9.890;2023-10-19T08:08:10;8.70;99.90
20722;DHT22;10522;52.198;9.890;2023-10-19T08:10:39;8.70;99.90
20722;DHT22;10522;52.198;9.890;2023-10-19T08:13:08;8.80;99.90
20722;DHT22;10522;52.198;9.890;2023-10-19T08:15:35;8.90;99.90
20722;DHT22;10522;52.198;9.890;2023-10-19T08:18:02;8.90;99.90
20722;DHT22;10522;52.198;9.890;2023-10-19T08:20:31;8.90;99.90
20722;DHT22;10522;52.198;9.890;2023-10-19T08:23:01;8.80;99.90
20722;DHT22;10522;52.198;9.890;2023-10-19T08:25:27;8.90;99.90
20722;DHT22;10522;52.198;9.890;2023-10-19T08:27:54;8.90;99.90
20722;DHT22;10522;52.198;9.890;2023-10-19T08:30:23;8.90;99.90
20722;DHT22;10522;52.198;9.890;2023-10-19T08:32:50;8.90;99.90
20722;DHT22;10522;52.198;9.890;2023-10-19T08:35:18;9.00;99.90
20722;DHT22;10522;52.198;9.890;2023-10-19T08:37:46;9.00;99.90
20722;DHT22;10522;52.198;9.890;2023-10-19T08:40:13;8.90;99.90
20722;DHT22;10522;52.198;9.890;2023-10-19T08:42:44;8.90;99.90
20722;DHT22;10522;52.198;9.890;2023-10-19T08:45:17;8.90;99.90
20722;DHT22;10522;52.198;9.890;2023-10-19T08:47:53;9.00;99.90
20722;DHT22;10522;52.198;9.890;2023-10-19T08:50:24;9.00;99.90
20722;DHT22;10522;52.198;9.890;2023-10-19T08:52:55;9.00;99.90
20722;DHT22;10522;52.198;9.890;2023-10-19T08:55:21;9.00;99.90
20722;DHT22;10522;52.198;9.890;2023-10-19T08:57:49;9.00;99.90
20722;DHT22;10522;52.198;9.890;2023-10-19T09:00:16;9.10;99.90
20722;DHT22;10522;52.198;9.890;2023-10-19T09:02:48;9.00;99.90
20722;DHT22;10522;52.198;9.890;2023-10-19T09:05:14;8.90;99.90
20722;DHT22;10522;52.198;9.890;2023-10-19T09:07:51;9.00;99.90
20722;DHT22;10522;52.198;9.890;2023-10-19T09:10:27;9.10;99.90
20722;DHT22;10522;52.198;9.890;2023-10-19T09:13:06;9.10;99.90
20722;DHT22;10522;52.198;9.890;2023-10-19T09:15:38;9.20;99.90
20722;DHT22;10522;52.198;9.890;2023-10-19T09:18:27;9.20;99.90
20722;DHT22;10522;52.198;9.890;2023-10-19T09:20:54;9.20;99.90
20722;DHT22;10522;52.198;9.890;2023-10-19T09:23:25;9.20;99.90
20722;DHT22;10522;52.198;9.890;2023-10-19T09:25:53;9.30;99.90
20722;DHT22;10522;52.198;9.890;2023-10-19T09:28:19;9.50;99.90
20722;DHT22;10522;52.198;9.890;2023-10-19T09:30:46;9.40;99.90
20722;DHT22;10522;52.198;9.890;2023-10-19T09:33:13;9.40;99.90
20722;DHT22;10522;52.198;9.890;2023-10-19T09:35:45;9.30;99.90
20722;DHT22;10522;52.198;9.890;2023-10-19T09:38:13;9.30;99.90
20722;DHT22;10522;52.198;9.890;2023-10-19T09:40:39;9.40;99.90
20722;DHT22;10522;52.198;9.890;2023-10-19T09:43:33;9.50;99.90
20722;DHT22;10522;52.198;9.890;2023-10-19T09:46:01;9.60;99.90
20722;DHT22;10522;52.198;9.890;2023-10-19T09:48:31;9.60;99.90
20722;DHT22;10522;52.198;9.890;2023-10-19T09:51:01;9.60;99.90
20722;DHT22;10522;52.198;9.890;2023-10-19T09:53:29;9.60;99.90
20722;DHT22;10522;52.198;9.890;2023-10-19T09:55:59;9.70;99.90
20722;DHT22;10522;52.198;9.890;2023-10-19T09:58:41;9.70;99.90
20722;DHT22;10522;52.198;9.890;2023-10-19T10:01:25;9.70;99.90
20722;DHT22;10522;52.198;9.890;2023-10-19T10:03:54;9.70;99.90
20722;DHT22;10522;52.198;9.890;2023-10-19T10:09:20;9.60;99.90
20722;DHT22;10522;52.198;9.890;2023-10-19T10:11:52;9.60;99.90
20722;DHT22;10522;52.198;9.890;2023-10-19T10:14:25;9.70;99.90
20722;DHT22;10522;52.198;9.890;2023-10-19T10:17:17;9.70;99.90
20722;DHT22;10522;52.198;9.890;2023-10-19T10:23:23;9.80;99.90
20722;DHT22;10522;52.198;9.890;2023-10-19T10:26:21;9.80;99.90
20722;DHT22;10522;52.198;9.890;2023-10-19T10:31:47;9.80;99.90
20722;DHT22;10522;52.198;9.890;2023-10-19T10:34:44;9.90;99.90
20722;DHT22;10522;52.198;9.890;2023-10-19T10:37:12;9.90;99.90
20722;DHT22;10522;52.198;9.890;2023-10-19T10:39:39;9.90;99.90
20722;DHT22;10522;52.198;9.890;2023-10-19T10:42:27;9.80;99.90
20722;DHT22;10522;52.198;9.890;2023-10-19T10:44:53;10.00;99.90
20722;DHT22;10522;52.198;9.890;2023-10-19T10:47:22;10.00;99.90
20722;DHT22;10522;52.198;9.890;2023-10-19T10:49:55;10.00;99.90
20722;DHT22;10522;52.198;9.890;2023-10-19T10:52:32;10.10;99.90
20722;DHT22;10522;52.198;9.890;2023-10-19T10:55:12;10.10;99.90
20722;DHT22;10522;52.198;9.890;2023-10-19T10:57:42;10.00;99.90
20722;DHT22;10522;52.198;9.890;2023-10-19T11:00:09;9.90;99.90
20722;DHT22;10522;52.198;9.890;2023-10-19T11:03:06;10.00;99.90
20722;DHT22;10522;52.198;9.890;2023-10-19T11:05:36;9.90;99.90
20722;DHT22;10522;52.198;9.890;2023-10-19T11:08:16;10.00;99.90
20722;DHT22;10522;52.198;9.890;2023-10-19T11:10:45;10.00;99.90
20722;DHT22;10522;52.198;9.890;2023-10-19T11:13:17;10.20;99.90
20722;DHT22;10522;52.198;9.890;2023-10-19T11:15:55;10.00;99.90
20722;DHT22;10522;52.198;9.890;2023-10-19T11:18:54;10.20;99.90
20722;DHT22;10522;52.198;9.890;2023-10-19T11:21:19;10.20;99.90
20722;DHT22;10522;52.198;9.890;2023-10-19T11:23:49;10.20;99.90
20722;DHT22;10522;52.198;9.890;2023-10-19T11:26:23;10.30;99.90
20722;DHT22;10522;52.198;9.890;2023-10-19T11:29:02;10.30;99.90
20722;DHT22;10522;52.198;9.890;2023-10-19T11:31:31;10.30;99.90
20722;DHT22;10522;52.198;9.890;2023-10-19T11:34:07;10.40;99.90
20722;DHT22;10522;52.198;9.890;2023-10-19T11:36:34;10.40;99.90
20722;DHT22;10522;52.198;9.890;2023-10-19T11:39:00;10.40;99.90
20722;DHT22;10522;52.198;9.890;2023-10-19T11:41:25;10.40;99.90
20722;DHT22;10522;52.198;9.890;2023-10-19T11:43:51;10.40;99.90
20722;DHT22;10522;52.198;9.890;2023-10-19T11:46:17;10.50;99.90
20722;DHT22;10522;52.198;9.890;2023-10-19T11:48:50;10.50;99.90
20722;DHT22;10522;52.198;9.890;2023-10-19T11:51:16;10.50;99.90
20722;DHT22;10522;52.198;9.890;2023-10-19T11:53:42;10.50;99.90
20722;DHT22;10522;52.198;9.890;2023-10-19T11:56:10;10.50;99.90
20722;DHT22;10522;52.198;9.890;2023-10-19T11:58:38;10.40;99.90
20722;DHT22;10522;52.198;9.890;2023-10-19T12:01:06;10.50;99.90
20722;DHT22;10522;52.198;9.890;2023-10-19T12:03:38;10.50;99.90
20722;DHT22;10522;52.198;9.890;2023-10-19T12:06:06;10.50;99.90
20722;DHT22;10522;52.198;9.890;2023-10-19T12:08:36;10.40;99.90
20722;DHT22;10522;52.198;9.890;2023-10-19T12:11:03;10.30;99.90
20722;DHT22;10522;52.198;9.890;2023-10-19T12:13:41;10.40;99.90
20722;DHT22;10522;52.198;9.890;2023-10-19T12:16:07;10.40;99.90
20722;DHT22;10522;52.198;9.890;2023-10-19T12:18:33;10.50;99.90
20722;DHT22;10522;52.198;9.890;2023-10-19T12:20:59;10.50;99.90
20722;DHT22;10522;52.198;9.890;2023-10-19T12:23:26;10.50;99.90
20722;DHT22;10522;52.198;9.890;2023-10-19T12:25:52;10.50;99.90
20722;DHT22;10522;52.198;9.890;2023-10-19T12:28:18;10.50;99.90
20722;DHT22;10522;52.198;9.890;2023-10-19T12:30:44;10.60;99.90
20722;DHT22;10522;52.198;9.890;2023-10-19T12:33:10;10.70;99.90
20722;DHT22;10522;52.198;9.890;2023-10-19T12:35:42;10.90;99.90
20722;DHT22;10522;52.198;9.890;2023-10-19T12:38:17;10.90;99.90
20722;DHT22;10522;52.198;9.890;2023-10-19T12:40:50;11.00;99.90
20722;DHT22;10522;52.198;9.890;2023-10-19T12:43:27;11.00;99.90
20722;DHT22;10522;52.198;9.890;2023-10-19T12:45:55;10.90;99.90
20722;DHT22;10522;52.198;9.890;2023-10-19T12:48:23;10.70;99.90
20722;DHT22;10522;52.198;9.890;2023-10-19T12:50:58;10.70;99.90
20722;DHT22;10522;52.198;9.890;2023-10-19T12:53:27;10.80;99.90
20722;DHT22;10522;52.198;9.890;2023-10-19T12:55:53;10.80;99.90
20722;DHT22;10522;52.198;9.890;2023-10-19T12:58:19;10.80;99.90
20722;DHT22;10522;52.198;9.890;2023-10-19T13:00:47;10.90;99.90
20722;DHT22;10522;52.198;9.890;2023-10-19T13:03:24;11.00;99.90
20722;DHT22;10522;52.198;9.890;2023-10-19T13:06:26;10.90;99.90
20722;DHT22;10522;52.198;9.890;2023-10-19T13:09:02;11.00;99.90
20722;DHT22;10522;52.198;9.890;2023-10-19T13:11:34;10.90;99.90
20722;DHT22;10522;52.198;9.890;2023-10-19T13:14:01;10.80;99.90
20722;DHT22;10522;52.198;9.890;2023-10-19T13:16:29;10.70;99.90
20722;DHT22;10522;52.198;9.890;2023-10-19T13:19:18;10.70;99.90
20722;DHT22;10522;52.198;9.890;2023-10-19T13:21:49;10.60;99.90
20722;DHT22;10522;52.198;9.890;2023-10-19T13:24:39;10.70;99.90
20722;DHT22;10522;52.198;9.890;2023-10-19T13:27:08;10.70;99.90
20722;DHT22;10522;52.198;9.890;2023-10-19T13:29:34;10.70;99.90
20722;DHT22;10522;52.198;9.890;2023-10-19T13:32:04;10.60;99.90
20722;DHT22;10522;52.198;9.890;2023-10-19T13:34:30;10.50;99.90
20722;DHT22;10522;52.198;9.890;2023-10-19T13:37:03;10.50;99.90
20722;DHT22;10522;52.198;9.890;2023-10-19T13:39:29;10.50;99.90
20722;DHT22;10522;52.198;9.890;2023-10-19T13:42:04;10.50;99.90
20722;DHT22;10522;52.198;9.890;2023-10-19T13:44:34;10.50;99.90
20722;DHT22;10522;52.198;9.890;2023-10-19T13:47:05;10.50;99.90
20722;DHT22;10522;52.198;9.890;2023-10-19T13:49:34;10.50;99.90
20722;DHT22;10522;52.198;9.890;2023-10-19T13:52:02;10.50;99.90
20722;DHT22;10522;52.198;9.890;2023-10-19T13:54:30;10.40;99.90
20722;DHT22;10522;52.198;9.890;2023-10-19T13:57:00;10.40;99.90
20722;DHT22;10522;52.198;9.890;2023-10-19T13:59:45;10.40;99.90
20722;DHT22;10522;52.198;9.890;2023-10-19T14:02:11;10.40;99.90
20722;DHT22;10522;52.198;9.890;2023-10-19T14:04:37;10.40;99.90
20722;DHT22;10522;52.198;9.890;2023-10-19T14:07:03;10.40;99.90
20722;DHT22;10522;52.198;9.890;2023-10-19T14:09:32;10.30;99.90
20722;DHT22;10522;52.198;9.890;2023-10-19T14:11:58;10.40;99.90
20722;DHT22;10522;52.198;9.890;2023-10-19T14:14:24;10.30;99.90
20722;DHT22;10522;52.198;9.890;2023-10-19T14:16:50;10.40;99.90
20722;DHT22;10522;52.198;9.890;2023-10-19T14:19:16;10.40;99.90
20722;DHT22;10522;52.198;9.890;2023-10-19T14:21:43;10.50;99.90
20722;DHT22;10522;52.198;9.890;2023-10-19T14:24:12;10.50;99.90
20722;DHT22;10522;52.198;9.890;2023-10-19T14:26:38;10.50;99.90
20722;DHT22;10522;52.198;9.890;2023-10-19T14:29:07;10.50;99.90
20722;DHT22;10522;52.198;9.890;2023-10-19T14:31:34;10.60;99.90
20722;DHT22;10522;52.198;9.890;2023-10-19T14:33:59;10.50;99.90
20722;DHT22;10522;52.198;9.890;2023-10-19T14:36:25;10.50;99.90
20722;DHT22;10522;52.198;9.890;2023-10-19T14:38:51;10.50;99.90
20722;DHT22;10522;52.198;9.890;2023-10-19T14:41:16;10.50;99.90
20722;DHT22;10522;52.198;9.890;2023-10-19T14:43:42;10.50;99.90
20722;DHT22;10522;52.198;9.890;2023-10-19T14:46:08;10.50;99.90
20722;DHT22;10522;52.198;9.890;2023-10-19T14:48:34;10.50;99.90
20722;DHT22;10522;52.198;9.890;2023-10-19T14:51:02;10.50;99.90
20722;DHT22;10522;52.198;9.890;2023-10-19T14:53:28;10.50;99.90
20722;DHT22;10522;52.198;9.890;2023-10-19T14:56:02;10.40;99.90
20722;DHT22;10522;52.198;9.890;2023-10-19T14:58:32;10.30;99.90
20722;DHT22;10522;52.198;9.890;2023-10-19T15:01:26;10.50;99.90
20722;DHT22;10522;52.198;9.890;2023-10-19T15:03:57;10.40;99.90
20722;DHT22;10522;52.198;9.890;2023-10-19T15:06:26;10.40;99.90
20722;DHT22;10522;52.198;9.890;2023-10-19T15:08:52;10.50;99.90
20722;DHT22;10522;52.198;9.890;2023-10-19T15:11:25;10.40;99.90
20722;DHT22;10522;52.198;9.890;2023-10-19T15:13:54;10.40;99.90
20722;DHT22;10522;52.198;9.890;2023-10-19T15:16:19;10.40;99.90
20722;DHT22;10522;52.198;9.890;2023-10-19T15:18:51;10.30;99.90
20722;DHT22;10522;52.198;9.890;2023-10-19T15:23:53;10.30;99.90
20722;DHT22;10522;52.198;9.890;2023-10-19T15:26:19;10.40;99.90
20722;DHT22;10522;52.198;9.890;2023-10-19T15:28:45;10.30;99.90
20722;DHT22;10522;52.198;9.890;2023-10-19T15:31:10;10.30;99.90
20722;DHT22;10522;52.198;9.890;2023-10-19T15:33:36;10.30;99.90
20722;DHT22;10522;52.198;9.890;2023-10-19T15:36:02;10.40;99.90
20722;DHT22;10522;52.198;9.890;2023-10-19T15:38:27;10.30;99.90
20722;DHT22;10522;52.198;9.890;2023-10-19T15:57:41;10.30;99.90
20722;DHT22;10522;52.198;9.890;2023-10-19T16:00:12;10.30;99.90
20722;DHT22;10522;52.198;9.890;2023-10-19T16:02:40;10.20;99.90
20722;DHT22;10522;52.198;9.890;2023-10-19T16:05:06;10.30;99.90
20722;DHT22;10522;52.198;9.890;2023-10-19T16:07:42;10.30;99.90
20722;DHT22;10522;52.198;9.890;2023-10-19T16:10:08;10.30;99.90
20722;DHT22;10522;52.198;9.890;2023-10-19T16:12:40;10.20;99.90
20722;DHT22;10522;52.198;9.890;2023-10-19T16:15:06;10.30;99.90
20722;DHT22;10522;52.198;9.890;2023-10-19T16:17:36;10.30;99.90
20722;DHT22;10522;52.198;9.890;2023-10-19T16:20:04;10.40;99.90
20722;DHT22;10522;52.198;9.890;2023-10-19T16:22:34;10.30;99.90
20722;DHT22;10522;52.198;9.890;2023-10-19T16:25:01;10.30;99.90